sensor_id;sensor_type;location;lat;lon;timestamp;pressure;altitude;pressure_sealevel;temperature;humidity
54600;BME280;40500;51.084;16.958;2023-06-10T00:00:50;100199.45;;;14.28;100.00
54600;BME280;40500;51.084;16.958;2023-06-10T00:03:43;100204.19;;;14.33;100.00
54600;BME280;40500;51.084;16.958;2023-06-10T00:06:43;100208.07;;;14.33;100.00
54600;BME280;40500;51.084;16.958;2023-06-10T00:09:17;100203.81;;;14.29;100.00
54600;BME280;40500;51.084;16.958;2023-06-10T00:12:13;100204.63;;;14.30;100.00
54600;BME280;40500;51.084;16.958;2023-06-10T00:15:09;100204.16;;;14.34;100.00
54600;BME280;40500;51.084;16.958;2023-06-10T00:18:06;100200.02;;;14.42;100.00
54600;BME280;40500;51.084;16.958;2023-06-10T00:21:14;100199.54;;;14.50;100.00
54600;BME280;40500;51.084;16.958;2023-06-10T00:24:39;100200.03;;;14.57;100.00
54600;BME280;40500;51.084;16.958;2023-06-10T00:27:38;100201.75;;;14.63;100.00
54600;BME280;40500;51.084;16.958;2023-06-10T00:30:23;100200.40;;;14.67;100.00
54600;BME280;40500;51.084;16.958;2023-06-10T00:33:23;100205.54;;;14.66;100.00
54600;BME280;40500;51.084;16.958;2023-06-10T00:36:16;100202.65;;;14.63;100.00
54600;BME280;40500;51.084;16.958;2023-06-10T00:39:25;100204.02;;;14.59;100.00
54600;BME280;40500;51.084;16.958;2023-06-10T00:42:00;100200.37;;;14.58;100.00
54600;BME280;40500;51.084;16.958;2023-06-10T00:44:57;100202.67;;;14.57;100.00
54600;BME280;40500;51.084;16.958;2023-06-10T00:47:51;100204.78;;;14.57;100.00
54600;BME280;40500;51.084;16.958;2023-06-10T00:50:48;100200.98;;;14.60;100.00
54600;BME280;40500;51.084;16.958;2023-06-10T00:53:44;100202.23;;;14.65;100.00
54600;BME280;40500;51.084;16.958;2023-06-10T00:56:47;100198.29;;;14.67;100.00
54600;BME280;40500;51.084;16.958;2023-06-10T00:59:48;100201.02;;;14.69;100.00
54600;BME280;40500;51.084;16.958;2023-06-10T01:02:44;100199.73;;;14.71;100.00
54600;BME280;40500;51.084;16.958;2023-06-10T01:05:43;100197.27;;;14.70;100.00
54600;BME280;40500;51.084;16.958;2023-06-10T01:09:00;100200.88;;;14.73;100.00
54600;BME280;40500;51.084;16.958;2023-06-10T01:12:00;100199.18;;;14.76;100.00
54600;BME280;40500;51.084;16.958;2023-06-10T01:15:15;100197.49;;;14.79;100.00
54600;BME280;40500;51.084;16.958;2023-06-10T01:18:00;100197.59;;;14.81;100.00
54600;BME280;40500;51.084;16.958;2023-06-10T01:20:58;100196.22;;;14.85;100.00
54600;BME280;40500;51.084;16.958;2023-06-10T01:23:54;100197.30;;;14.89;100.00
54600;BME280;40500;51.084;16.958;2023-06-10T01:26:53;100192.46;;;14.91;100.00
54600;BME280;40500;51.084;16.958;2023-06-10T01:30:14;100191.88;;;14.92;100.00
54600;BME280;40500;51.084;16.958;2023-06-10T01:33:27;100190.55;;;14.95;100.00
54600;BME280;40500;51.084;16.958;2023-06-10T01:36:23;100196.83;;;14.96;100.00
54600;BME280;40500;51.084;16.958;2023-06-10T01:39:13;100199.34;;;15.00;100.00
54600;BME280;40500;51.084;16.958;2023-06-10T01:42:12;100196.25;;;15.03;100.00
54600;BME280;40500;51.084;16.958;2023-06-10T01:45:11;100200.72;;;15.06;100.00
54600;BME280;40500;51.084;16.958;2023-06-10T01:48:21;100199.39;;;15.09;100.00
54600;BME280;40500;51.084;16.958;2023-06-10T01:51:20;100202.98;;;15.11;100.00
54600;BME280;40500;51.084;16.958;2023-06-10T01:54:16;100204.54;;;15.12;100.00
54600;BME280;40500;51.084;16.958;2023-06-10T01:57:13;100199.09;;;15.12;100.00
54600;BME280;40500;51.084;16.958;2023-06-10T02:00:14;100201.45;;;15.10;100.00
54600;BME280;40500;51.084;16.958;2023-06-10T02:03:29;100198.52;;;15.08;100.00
54600;BME280;40500;51.084;16.958;2023-06-10T02:06:41;100198.02;;;15.02;100.00
54600;BME280;40500;51.084;16.958;2023-06-10T02:09:40;100198.88;;;15.03;100.00
54600;BME280;40500;51.084;16.958;2023-06-10T02:12:49;100198.32;;;15.04;100.00
54600;BME280;40500;51.084;16.958;2023-06-10T02:15:50;100192.83;;;15.05;100.00
54600;BME280;40500;51.084;16.958;2023-06-10T02:18:48;100190.76;;;15.03;100.00
54600;BME280;40500;51.084;16.958;2023-06-10T02:21:30;100195.98;;;15.05;100.00
54600;BME280;40500;51.084;16.958;2023-06-10T02:24:33;100195.05;;;15.07;100.00
54600;BME280;40500;51.084;16.958;2023-06-10T02:27:29;100191.49;;;15.08;100.00
54600;BME280;40500;51.084;16.958;2023-06-10T02:30:39;100189.69;;;15.09;100.00
54600;BME280;40500;51.084;16.958;2023-06-10T02:33:40;100189.66;;;15.09;100.00
54600;BME280;40500;51.084;16.958;2023-06-10T02:36:18;100185.65;;;15.08;100.00
54600;BME280;40500;51.084;16.958;2023-06-10T02:42:44;100192.45;;;15.10;100.00
54600;BME280;40500;51.084;16.958;2023-06-10T02:48:54;100204.20;;;15.17;100.00
54600;BME280;40500;51.084;16.958;2023-06-10T02:52:00;100204.81;;;15.18;100.00
54600;BME280;40500;51.084;16.958;2023-06-10T02:55:02;100203.48;;;15.17;100.00
54600;BME280;40500;51.084;16.958;2023-06-10T02:58:01;100205.05;;;15.17;100.00
54600;BME280;40500;51.084;16.958;2023-06-10T03:00:55;100204.36;;;15.17;100.00
54600;BME280;40500;51.084;16.958;2023-06-10T03:04:20;100204.62;;;15.15;100.00
54600;BME280;40500;51.084;16.958;2023-06-10T03:07:26;100205.80;;;15.11;100.00
54600;BME280;40500;51.084;16.958;2023-06-10T03:10:44;100207.39;;;15.07;100.00
54600;BME280;40500;51.084;16.958;2023-06-10T03:13:43;100209.78;;;15.04;100.00
54600;BME280;40500;51.084;16.958;2023-06-10T03:16:52;100215.54;;;15.06;100.00
54600;BME280;40500;51.084;16.958;2023-06-10T03:19:53;100223.75;;;15.08;100.00
54600;BME280;40500;51.084;16.958;2023-06-10T03:23:03;100222.77;;;15.10;100.00
54600;BME280;40500;51.084;16.958;2023-06-10T03:25:59;100226.93;;;15.12;100.00
54600;BME280;40500;51.084;16.958;2023-06-10T03:28:57;100220.39;;;15.13;100.00
54600;BME280;40500;51.084;16.958;2023-06-10T03:31:40;100222.95;;;15.15;100.00
54600;BME280;40500;51.084;16.958;2023-06-10T03:34:35;100221.09;;;15.18;100.00
54600;BME280;40500;51.084;16.958;2023-06-10T03:37:15;100223.71;;;15.18;100.00
54600;BME280;40500;51.084;16.958;2023-06-10T03:40:19;100226.98;;;15.20;100.00
54600;BME280;40500;51.084;16.958;2023-06-10T03:43:22;100226.46;;;15.20;100.00
54600;BME280;40500;51.084;16.958;2023-06-10T03:46:22;100233.05;;;15.23;100.00
54600;BME280;40500;51.084;16.958;2023-06-10T03:49:11;100236.02;;;15.24;100.00
54600;BME280;40500;51.084;16.958;2023-06-10T03:52:21;100241.91;;;15.27;100.00
54600;BME280;40500;51.084;16.958;2023-06-10T03:55:34;100240.48;;;15.27;100.00
54600;BME280;40500;51.084;16.958;2023-06-10T03:58:36;100246.84;;;15.27;100.00
54600;BME280;40500;51.084;16.958;2023-06-10T04:01:36;100249.13;;;15.27;100.00
54600;BME280;40500;51.084;16.958;2023-06-10T04:04:37;100254.64;;;15.31;100.00
54600;BME280;40500;51.084;16.958;2023-06-10T04:07:21;100254.42;;;15.32;100.00
54600;BME280;40500;51.084;16.958;2023-06-10T04:10:28;100253.98;;;15.34;100.00
54600;BME280;40500;51.084;16.958;2023-06-10T04:13:28;100251.82;;;15.36;100.00
54600;BME280;40500;51.084;16.958;2023-06-10T04:16:08;100254.61;;;15.36;100.00
54600;BME280;40500;51.084;16.958;2023-06-10T04:19:08;100253.15;;;15.38;100.00
54600;BME280;40500;51.084;16.958;2023-06-10T04:22:09;100255.92;;;15.39;100.00
54600;BME280;40500;51.084;16.958;2023-06-10T04:25:18;100252.44;;;15.42;100.00
54600;BME280;40500;51.084;16.958;2023-06-10T04:28:31;100253.73;;;15.45;100.00
54600;BME280;40500;51.084;16.958;2023-06-10T04:31:34;100256.66;;;15.48;100.00
54600;BME280;40500;51.084;16.958;2023-06-10T04:34:30;100257.10;;;15.50;100.00
54600;BME280;40500;51.084;16.958;2023-06-10T04:37:28;100262.45;;;15.53;100.00
54600;BME280;40500;51.084;16.958;2023-06-10T04:40:25;100262.02;;;15.55;100.00
54600;BME280;40500;51.084;16.958;2023-06-10T04:43:26;100265.27;;;15.53;100.00
54600;BME280;40500;51.084;16.958;2023-06-10T04:46:26;100259.25;;;15.53;100.00
54600;BME280;40500;51.084;16.958;2023-06-10T04:49:30;100265.30;;;15.57;100.00
54600;BME280;40500;51.084;16.958;2023-06-10T04:52:24;100266.43;;;15.64;100.00
54600;BME280;40500;51.084;16.958;2023-06-10T04:55:22;100265.67;;;15.70;100.00
54600;BME280;40500;51.084;16.958;2023-06-10T04:58:37;100267.70;;;15.73;100.00
54600;BME280;40500;51.084;16.958;2023-06-10T05:01:48;100274.98;;;15.71;100.00
54600;BME280;40500;51.084;16.958;2023-06-10T05:04:57;100274.77;;;15.72;100.00
54600;BME280;40500;51.084;16.958;2023-06-10T05:07:30;100268.85;;;15.75;100.00
54600;BME280;40500;51.084;16.958;2023-06-10T05:10:30;100268.52;;;15.79;100.00
54600;BME280;40500;51.084;16.958;2023-06-10T05:13:36;100272.27;;;15.87;100.00
54600;BME280;40500;51.084;16.958;2023-06-10T05:16:35;100273.23;;;15.94;100.00
54600;BME280;40500;51.084;16.958;2023-06-10T05:19:46;100274.79;;;15.99;100.00
54600;BME280;40500;51.084;16.958;2023-06-10T05:22:55;100278.90;;;16.11;100.00
54600;BME280;40500;51.084;16.958;2023-06-10T05:25:51;100278.66;;;16.21;100.00
54600;BME280;40500;51.084;16.958;2023-06-10T05:32:30;100285.79;;;16.41;100.00
54600;BME280;40500;51.084;16.958;2023-06-10T05:35:47;100291.60;;;16.54;100.00
54600;BME280;40500;51.084;16.958;2023-06-10T05:38:51;100290.30;;;16.64;100.00
54600;BME280;40500;51.084;16.958;2023-06-10T05:41:51;100293.73;;;16.75;100.00
54600;BME280;40500;51.084;16.958;2023-06-10T05:44:47;100296.34;;;16.89;100.00
54600;BME280;40500;51.084;16.958;2023-06-10T05:47:43;100293.77;;;17.03;100.00
54600;BME280;40500;51.084;16.958;2023-06-10T05:50:19;100290.81;;;17.14;100.00
54600;BME280;40500;51.084;16.958;2023-06-10T05:53:27;100295.95;;;17.29;100.00
54600;BME280;40500;51.084;16.958;2023-06-10T05:56:30;100297.80;;;17.43;100.00
54600;BME280;40500;51.084;16.958;2023-06-10T05:59:23;100297.70;;;17.60;100.00
54600;BME280;40500;51.084;16.958;2023-06-10T06:02:15;100298.48;;;17.78;100.00
54600;BME280;40500;51.084;16.958;2023-06-10T06:05:14;100300.89;;;18.02;100.00
54600;BME280;40500;51.084;16.958;2023-06-10T06:08:13;100305.72;;;18.37;100.00
54600;BME280;40500;51.084;16.958;2023-06-10T06:11:08;100304.06;;;18.74;100.00
54600;BME280;40500;51.084;16.958;2023-06-10T06:14:07;100300.77;;;19.04;100.00
54600;BME280;40500;51.084;16.958;2023-06-10T06:16:42;100297.06;;;19.17;100.00
54600;BME280;40500;51.084;16.958;2023-06-10T06:26:10;100305.48;;;19.39;100.00
54600;BME280;40500;51.084;16.958;2023-06-10T06:29:11;100305.54;;;19.41;100.00
54600;BME280;40500;51.084;16.958;2023-06-10T06:35:29;100309.30;;;19.44;100.00
54600;BME280;40500;51.084;16.958;2023-06-10T06:38:19;100307.42;;;19.52;100.00
54600;BME280;40500;51.084;16.958;2023-06-10T06:41:24;100311.83;;;19.59;100.00
54600;BME280;40500;51.084;16.958;2023-06-10T06:44:24;100312.23;;;19.65;100.00
54600;BME280;40500;51.084;16.958;2023-06-10T06:53:00;100317.14;;;19.80;100.00
54600;BME280;40500;51.084;16.958;2023-06-10T06:55:59;100324.89;;;19.87;100.00
54600;BME280;40500;51.084;16.958;2023-06-10T06:59:02;100325.46;;;19.93;100.00
54600;BME280;40500;51.084;16.958;2023-06-10T07:02:15;100327.46;;;19.95;100.00
54600;BME280;40500;51.084;16.958;2023-06-10T07:05:06;100334.41;;;19.98;100.00
54600;BME280;40500;51.084;16.958;2023-06-10T07:08:20;100337.95;;;20.01;100.00
54600;BME280;40500;51.084;16.958;2023-06-10T07:11:14;100341.41;;;20.03;100.00
54600;BME280;40500;51.084;16.958;2023-06-10T07:14:10;100337.35;;;20.06;100.00
54600;BME280;40500;51.084;16.958;2023-06-10T07:16:42;100333.21;;;20.10;100.00
54600;BME280;40500;51.084;16.958;2023-06-10T07:19:14;100336.64;;;20.15;100.00
54600;BME280;40500;51.084;16.958;2023-06-10T07:21:45;100340.00;;;20.19;100.00
54600;BME280;40500;51.084;16.958;2023-06-10T07:24:17;100340.33;;;20.20;100.00
54600;BME280;40500;51.084;16.958;2023-06-10T07:26:49;100340.48;;;20.23;100.00
54600;BME280;40500;51.084;16.958;2023-06-10T07:29:23;100338.41;;;20.25;100.00
54600;BME280;40500;51.084;16.958;2023-06-10T07:31:55;100345.09;;;20.23;100.00
54600;BME280;40500;51.084;16.958;2023-06-10T07:34:26;100350.36;;;20.24;100.00
54600;BME280;40500;51.084;16.958;2023-06-10T07:36:56;100351.17;;;20.25;100.00
54600;BME280;40500;51.084;16.958;2023-06-10T07:39:28;100351.17;;;20.28;100.00
54600;BME280;40500;51.084;16.958;2023-06-10T07:41:59;100350.89;;;20.33;100.00
54600;BME280;40500;51.084;16.958;2023-06-10T07:44:31;100349.66;;;20.36;100.00
54600;BME280;40500;51.084;16.958;2023-06-10T07:47:03;100353.29;;;20.41;100.00
54600;BME280;40500;51.084;16.958;2023-06-10T07:49:34;100355.13;;;20.46;100.00
54600;BME280;40500;51.084;16.958;2023-06-10T07:52:06;100356.86;;;20.50;100.00
54600;BME280;40500;51.084;16.958;2023-06-10T07:54:37;100356.02;;;20.56;100.00
54600;BME280;40500;51.084;16.958;2023-06-10T07:57:09;100357.10;;;20.62;100.00
54600;BME280;40500;51.084;16.958;2023-06-10T07:59:40;100357.50;;;20.64;100.00
54600;BME280;40500;51.084;16.958;2023-06-10T08:02:11;100357.77;;;20.72;100.00
54600;BME280;40500;51.084;16.958;2023-06-10T08:04:42;100355.39;;;20.82;100.00
54600;BME280;40500;51.084;16.958;2023-06-10T08:07:14;100357.48;;;20.88;100.00
54600;BME280;40500;51.084;16.958;2023-06-10T08:09:48;100355.59;;;20.97;100.00
54600;BME280;40500;51.084;16.958;2023-06-10T08:12:19;100359.13;;;21.06;100.00
54600;BME280;40500;51.084;16.958;2023-06-10T08:14:50;100355.06;;;21.20;100.00
54600;BME280;40500;51.084;16.958;2023-06-10T08:17:20;100358.05;;;21.45;100.00
54600;BME280;40500;51.084;16.958;2023-06-10T08:19:52;100361.42;;;21.70;100.00
54600;BME280;40500;51.084;16.958;2023-06-10T08:22:22;100363.02;;;21.82;100.00
54600;BME280;40500;51.084;16.958;2023-06-10T08:24:57;100366.19;;;21.85;100.00
54600;BME280;40500;51.084;16.958;2023-06-10T08:27:28;100366.05;;;21.85;100.00
54600;BME280;40500;51.084;16.958;2023-06-10T08:29:59;100366.29;;;21.84;100.00
54600;BME280;40500;51.084;16.958;2023-06-10T08:32:31;100367.89;;;21.84;100.00
54600;BME280;40500;51.084;16.958;2023-06-10T08:35:05;100370.14;;;21.88;100.00
54600;BME280;40500;51.084;16.958;2023-06-10T08:37:36;100365.50;;;21.97;100.00
54600;BME280;40500;51.084;16.958;2023-06-10T08:40:12;100368.18;;;22.07;100.00
54600;BME280;40500;51.084;16.958;2023-06-10T08:42:48;100369.50;;;22.17;100.00
54600;BME280;40500;51.084;16.958;2023-06-10T08:45:19;100369.69;;;22.31;100.00
54600;BME280;40500;51.084;16.958;2023-06-10T08:47:58;100374.85;;;22.40;100.00
54600;BME280;40500;51.084;16.958;2023-06-10T08:50:31;100374.67;;;22.42;100.00
54600;BME280;40500;51.084;16.958;2023-06-10T08:53:05;100377.58;;;22.41;100.00
54600;BME280;40500;51.084;16.958;2023-06-10T08:55:38;100375.30;;;22.44;100.00
54600;BME280;40500;51.084;16.958;2023-06-10T08:58:10;100375.83;;;22.44;100.00
54600;BME280;40500;51.084;16.958;2023-06-10T09:00:41;100372.93;;;22.44;100.00
54600;BME280;40500;51.084;16.958;2023-06-10T09:03:12;100374.69;;;22.45;100.00
54600;BME280;40500;51.084;16.958;2023-06-10T09:05:45;100372.00;;;22.42;100.00
54600;BME280;40500;51.084;16.958;2023-06-10T09:08:16;100368.70;;;22.41;100.00
54600;BME280;40500;51.084;16.958;2023-06-10T09:10:51;100365.92;;;22.40;100.00
54600;BME280;40500;51.084;16.958;2023-06-10T09:13:21;100357.75;;;22.39;100.00
54600;BME280;40500;51.084;16.958;2023-06-10T09:15:52;100360.45;;;22.47;100.00
54600;BME280;40500;51.084;16.958;2023-06-10T09:18:25;100355.09;;;22.50;100.00
54600;BME280;40500;51.084;16.958;2023-06-10T09:20:56;100354.54;;;22.55;100.00
54600;BME280;40500;51.084;16.958;2023-06-10T09:23:26;100353.97;;;22.62;100.00
54600;BME280;40500;51.084;16.958;2023-06-10T09:26:00;100353.72;;;22.57;100.00
54600;BME280;40500;51.084;16.958;2023-06-10T09:28:33;100350.98;;;22.47;100.00
54600;BME280;40500;51.084;16.958;2023-06-10T09:31:07;100350.98;;;22.42;100.00
54600;BME280;40500;51.084;16.958;2023-06-10T09:33:39;100351.63;;;22.40;100.00
54600;BME280;40500;51.084;16.958;2023-06-10T09:36:10;100349.31;;;22.40;100.00
54600;BME280;40500;51.084;16.958;2023-06-10T09:38:41;100347.60;;;22.44;100.00
54600;BME280;40500;51.084;16.958;2023-06-10T09:41:12;100350.56;;;22.51;100.00
54600;BME280;40500;51.084;16.958;2023-06-10T09:43:45;100346.65;;;22.64;100.00
54600;BME280;40500;51.084;16.958;2023-06-10T09:46:19;100343.83;;;22.74;100.00
54600;BME280;40500;51.084;16.958;2023-06-10T09:48:50;100340.14;;;22.76;100.00
54600;BME280;40500;51.084;16.958;2023-06-10T09:51:20;100340.38;;;22.75;100.00
54600;BME280;40500;51.084;16.958;2023-06-10T09:53:53;100339.55;;;22.74;100.00
54600;BME280;40500;51.084;16.958;2023-06-10T09:56:33;100347.70;;;22.77;100.00
54600;BME280;40500;51.084;16.958;2023-06-10T09:59:10;100343.39;;;22.81;100.00
54600;BME280;40500;51.084;16.958;2023-06-10T10:01:40;100340.34;;;22.78;100.00
54600;BME280;40500;51.084;16.958;2023-06-10T10:04:11;100339.85;;;22.77;100.00
54600;BME280;40500;51.084;16.958;2023-06-10T10:06:42;100340.10;;;22.81;100.00
54600;BME280;40500;51.084;16.958;2023-06-10T10:09:15;100334.92;;;22.87;100.00
54600;BME280;40500;51.084;16.958;2023-06-10T10:11:48;100325.09;;;22.98;100.00
54600;BME280;40500;51.084;16.958;2023-06-10T10:14:21;100324.40;;;23.08;100.00
54600;BME280;40500;51.084;16.958;2023-06-10T10:16:53;100319.46;;;23.15;100.00
54600;BME280;40500;51.084;16.958;2023-06-10T10:19:30;100306.11;;;23.27;100.00
54600;BME280;40500;51.084;16.958;2023-06-10T10:22:06;100308.15;;;23.26;100.00
54600;BME280;40500;51.084;16.958;2023-06-10T10:24:42;100305.17;;;23.25;100.00
54600;BME280;40500;51.084;16.958;2023-06-10T10:27:21;100299.70;;;23.27;100.00
54600;BME280;40500;51.084;16.958;2023-06-10T10:29:53;100308.45;;;23.37;100.00
54600;BME280;40500;51.084;16.958;2023-06-10T10:32:29;100303.23;;;23.43;100.00
54600;BME280;40500;51.084;16.958;2023-06-10T10:35:09;100296.95;;;23.47;100.00
54600;BME280;40500;51.084;16.958;2023-06-10T10:37:43;100289.23;;;23.48;100.00
54600;BME280;40500;51.084;16.958;2023-06-10T10:40:14;100292.09;;;23.38;100.00
54600;BME280;40500;51.084;16.958;2023-06-10T10:42:46;100290.13;;;23.33;100.00
54600;BME280;40500;51.084;16.958;2023-06-10T10:45:18;100276.73;;;23.25;100.00
54600;BME280;40500;51.084;16.958;2023-06-10T10:47:53;100274.55;;;23.21;100.00
54600;BME280;40500;51.084;16.958;2023-06-10T10:50:25;100277.14;;;23.17;100.00
54600;BME280;40500;51.084;16.958;2023-06-10T10:53:03;100274.11;;;23.15;100.00
54600;BME280;40500;51.084;16.958;2023-06-10T10:55:34;100272.48;;;23.20;100.00
54600;BME280;40500;51.084;16.958;2023-06-10T10:58:06;100274.98;;;23.20;100.00
54600;BME280;40500;51.084;16.958;2023-06-10T11:00:43;100276.83;;;23.16;100.00
54600;BME280;40500;51.084;16.958;2023-06-10T11:03:15;100275.48;;;23.18;100.00
54600;BME280;40500;51.084;16.958;2023-06-10T11:05:47;100274.96;;;23.30;100.00
54600;BME280;40500;51.084;16.958;2023-06-10T11:08:48;100272.02;;;23.49;100.00
54600;BME280;40500;51.084;16.958;2023-06-10T11:11:23;100268.14;;;23.81;100.00
54600;BME280;40500;51.084;16.958;2023-06-10T11:14:06;100267.15;;;23.99;100.00
54600;BME280;40500;51.084;16.958;2023-06-10T11:16:43;100264.89;;;24.22;100.00
54600;BME280;40500;51.084;16.958;2023-06-10T11:19:33;100264.59;;;24.45;100.00
54600;BME280;40500;51.084;16.958;2023-06-10T11:22:07;100261.66;;;24.56;100.00
54600;BME280;40500;51.084;16.958;2023-06-10T11:24:39;100251.83;;;24.58;100.00
54600;BME280;40500;51.084;16.958;2023-06-10T11:27:21;100246.55;;;24.61;100.00
54600;BME280;40500;51.084;16.958;2023-06-10T11:30:12;100240.72;;;24.74;100.00
54600;BME280;40500;51.084;16.958;2023-06-10T11:32:51;100243.20;;;25.02;100.00
54600;BME280;40500;51.084;16.958;2023-06-10T11:35:24;100241.88;;;25.41;100.00
54600;BME280;40500;51.084;16.958;2023-06-10T11:37:56;100235.69;;;25.62;100.00
54600;BME280;40500;51.084;16.958;2023-06-10T11:40:27;100229.59;;;25.74;100.00
54600;BME280;40500;51.084;16.958;2023-06-10T11:42:59;100238.61;;;25.86;100.00
54600;BME280;40500;51.084;16.958;2023-06-10T11:45:34;100244.42;;;25.87;100.00
54600;BME280;40500;51.084;16.958;2023-06-10T11:48:05;100244.39;;;25.83;100.00
54600;BME280;40500;51.084;16.958;2023-06-10T11:50:35;100247.11;;;25.78;100.00
54600;BME280;40500;51.084;16.958;2023-06-10T11:53:09;100246.66;;;25.64;100.00
54600;BME280;40500;51.084;16.958;2023-06-10T11:55:45;100242.93;;;25.49;100.00
54600;BME280;40500;51.084;16.958;2023-06-10T11:58:17;100249.88;;;25.56;100.00
54600;BME280;40500;51.084;16.958;2023-06-10T12:00:51;100243.38;;;25.56;100.00
54600;BME280;40500;51.084;16.958;2023-06-10T12:03:22;100244.71;;;25.46;100.00
54600;BME280;40500;51.084;16.958;2023-06-10T12:06:01;100239.01;;;25.33;100.00
54600;BME280;40500;51.084;16.958;2023-06-10T12:08:33;100231.08;;;25.19;100.00
54600;BME280;40500;51.084;16.958;2023-06-10T12:11:11;100236.88;;;25.21;100.00
54600;BME280;40500;51.084;16.958;2023-06-10T12:13:47;100238.52;;;25.27;100.00
54600;BME280;40500;51.084;16.958;2023-06-10T12:16:19;100241.13;;;25.57;100.00
54600;BME280;40500;51.084;16.958;2023-06-10T12:18:50;100239.55;;;25.99;100.00
54600;BME280;40500;51.084;16.958;2023-06-10T12:21:23;100233.96;;;26.38;100.00
54600;BME280;40500;51.084;16.958;2023-06-10T12:24:06;100227.66;;;26.64;100.00
54600;BME280;40500;51.084;16.958;2023-06-10T12:26:40;100226.77;;;26.93;100.00
54600;BME280;40500;51.084;16.958;2023-06-10T12:29:21;100229.13;;;27.19;100.00
54600;BME280;40500;51.084;16.958;2023-06-10T12:31:59;100229.57;;;27.24;100.00
54600;BME280;40500;51.084;16.958;2023-06-10T12:34:35;100233.33;;;27.18;100.00
54600;BME280;40500;51.084;16.958;2023-06-10T12:37:11;100230.15;;;27.26;100.00
54600;BME280;40500;51.084;16.958;2023-06-10T12:39:43;100222.25;;;27.58;100.00
54600;BME280;40500;51.084;16.958;2023-06-10T12:42:24;100216.92;;;27.91;100.00
54600;BME280;40500;51.084;16.958;2023-06-10T12:44:55;100211.85;;;28.13;100.00
54600;BME280;40500;51.084;16.958;2023-06-10T12:47:34;100203.67;;;28.33;100.00
54600;BME280;40500;51.084;16.958;2023-06-10T12:50:10;100207.73;;;28.50;100.00
54600;BME280;40500;51.084;16.958;2023-06-10T12:52:49;100212.98;;;28.65;100.00
54600;BME280;40500;51.084;16.958;2023-06-10T12:55:20;100211.67;;;28.58;100.00
54600;BME280;40500;51.084;16.958;2023-06-10T12:57:51;100206.52;;;28.28;100.00
54600;BME280;40500;51.084;16.958;2023-06-10T13:00:24;100206.61;;;27.94;100.00
54600;BME280;40500;51.084;16.958;2023-06-10T13:02:59;100205.13;;;27.80;100.00
54600;BME280;40500;51.084;16.958;2023-06-10T13:05:37;100200.76;;;28.09;100.00
54600;BME280;40500;51.084;16.958;2023-06-10T13:08:12;100196.13;;;28.14;99.18
54600;BME280;40500;51.084;16.958;2023-06-10T13:10:42;100197.71;;;28.08;97.11
54600;BME280;40500;51.084;16.958;2023-06-10T13:13:13;100199.79;;;28.27;96.66
54600;BME280;40500;51.084;16.958;2023-06-10T13:15:45;100192.66;;;28.43;92.78
54600;BME280;40500;51.084;16.958;2023-06-10T13:18:17;100197.40;;;28.25;87.07
54600;BME280;40500;51.084;16.958;2023-06-10T13:20:48;100201.40;;;28.33;86.58
54600;BME280;40500;51.084;16.958;2023-06-10T13:23:19;100196.32;;;28.49;81.69
54600;BME280;40500;51.084;16.958;2023-06-10T13:25:49;100198.14;;;28.66;79.21
54600;BME280;40500;51.084;16.958;2023-06-10T13:28:20;100198.77;;;28.61;77.41
54600;BME280;40500;51.084;16.958;2023-06-10T13:30:52;100201.30;;;28.87;78.01
54600;BME280;40500;51.084;16.958;2023-06-10T13:33:23;100203.56;;;29.14;76.47
54600;BME280;40500;51.084;16.958;2023-06-10T13:35:53;100199.25;;;29.28;73.90
54600;BME280;40500;51.084;16.958;2023-06-10T13:38:24;100197.77;;;29.41;69.77
54600;BME280;40500;51.084;16.958;2023-06-10T13:40:56;100198.23;;;29.41;68.25
54600;BME280;40500;51.084;16.958;2023-06-10T13:43:28;100196.70;;;29.30;65.06
54600;BME280;40500;51.084;16.958;2023-06-10T13:45:59;100196.33;;;29.20;66.37
54600;BME280;40500;51.084;16.958;2023-06-10T13:48:32;100195.71;;;29.04;63.04
54600;BME280;40500;51.084;16.958;2023-06-10T13:51:03;100199.90;;;29.09;64.84
54600;BME280;40500;51.084;16.958;2023-06-10T13:53:35;100199.54;;;29.30;63.70
54600;BME280;40500;51.084;16.958;2023-06-10T13:56:06;100197.42;;;29.55;62.07
54600;BME280;40500;51.084;16.958;2023-06-10T13:58:37;100192.12;;;29.82;63.02
54600;BME280;40500;51.084;16.958;2023-06-10T14:01:11;100195.64;;;30.03;62.40
54600;BME280;40500;51.084;16.958;2023-06-10T14:03:44;100194.45;;;30.03;61.57
54600;BME280;40500;51.084;16.958;2023-06-10T14:06:15;100197.41;;;30.01;60.32
54600;BME280;40500;51.084;16.958;2023-06-10T14:08:49;100195.36;;;29.98;59.39
54600;BME280;40500;51.084;16.958;2023-06-10T14:11:22;100195.27;;;29.99;55.14
54600;BME280;40500;51.084;16.958;2023-06-10T14:13:53;100200.04;;;30.07;57.91
54600;BME280;40500;51.084;16.958;2023-06-10T14:16:25;100194.64;;;29.94;56.39
54600;BME280;40500;51.084;16.958;2023-06-10T14:18:56;100197.27;;;29.93;56.39
54600;BME280;40500;51.084;16.958;2023-06-10T14:21:26;100193.42;;;29.93;55.79
54600;BME280;40500;51.084;16.958;2023-06-10T14:23:57;100194.64;;;30.33;57.41
54600;BME280;40500;51.084;16.958;2023-06-10T14:26:28;100187.33;;;31.07;52.78